Time;durP1;ratioP1;P1;durP2;ratioP2;P2;SDS_P1;SDS_P2;PMS_P1;PMS_P2;Temp;Humidity;BMP_temperature;BMP_pressure;BME280_temperature;BME280_humidity;BME280_pressure;Samples;Min_cycle;Max_cycle;Signal;HPM_P1;HPM_P2
2024/04/13 00:01:12;;;;;;;10.10;7.20;;;;;;;13.07;86.19;99394.34;4534484;26;21351;-82
2024/04/13 00:03:15;;;;;;;7.87;6.63;;;;;;;13.04;85.88;99386.66;4533030;26;20578;-81
2024/04/13 00:05:21;;;;;;;8.57;5.90;;;;;;;12.98;86.36;99394.03;4537722;26;20568;-82
2024/04/13 00:07:26;;;;;;;7.17;6.50;;;;;;;12.94;86.35;99390.72;4535226;26;20568;-82
2024/04/13 00:09:32;;;;;;;7.50;6.20;;;;;;;12.91;86.15;99390.06;4538898;26;20557;-81
2024/04/13 00:11:35;;;;;;;6.63;5.60;;;;;;;12.93;86.49;99394.31;4519951;26;20553;-82
2024/04/13 00:13:40;;;;;;;6.53;5.60;;;;;;;12.92;86.65;99392.59;4539461;26;21070;-82
2024/04/13 00:15:43;;;;;;;9.20;6.00;;;;;;;12.90;86.31;99385.75;4540674;26;20617;-82
2024/04/13 00:17:49;;;;;;;8.67;6.20;;;;;;;12.88;86.71;99388.47;4547192;26;20550;-82
2024/04/13 00:19:53;;;;;;;10.43;5.93;;;;;;;12.84;86.68;99381.72;4544033;26;20535;-82
2024/04/13 00:22:00;;;;;;;7.10;5.30;;;;;;;12.79;86.67;99378.50;4534817;26;20569;-82
2024/04/13 00:24:07;;;;;;;6.37;5.77;;;;;;;12.72;86.89;99374.53;4505979;26;20585;-82
2024/04/13 00:26:12;;;;;;;8.77;5.77;;;;;;;12.68;86.88;99375.63;4535717;26;20572;-82
2024/04/13 00:28:16;;;;;;;10.10;5.80;;;;;;;12.66;86.82;99378.41;4538522;26;21107;-82
2024/04/13 00:30:21;;;;;;;8.37;6.10;;;;;;;12.65;87.10;99379.38;4504657;26;21089;-82
2024/04/13 00:32:24;;;;;;;6.70;5.37;;;;;;;12.62;87.60;99371.69;4536290;26;21042;-82
2024/04/13 00:34:30;;;;;;;6.77;5.37;;;;;;;12.63;87.56;99374.22;4555697;26;20570;-82
2024/04/13 00:36:35;;;;;;;7.43;5.67;;;;;;;12.64;87.17;99375.03;4568197;25;21010;-82
2024/04/13 00:38:41;;;;;;;7.40;5.40;;;;;;;12.64;87.33;99377.66;4538835;26;20677;-82
2024/04/13 00:40:47;;;;;;;9.37;6.10;;;;;;;12.65;87.74;99376.75;4532948;26;20666;-80
2024/04/13 00:42:57;;;;;;;6.90;5.40;;;;;;;12.62;87.70;99376.91;4543599;26;20643;-82
2024/04/13 00:45:03;;;;;;;7.60;5.57;;;;;;;12.60;87.55;99369.16;4524802;26;20555;-82
2024/04/13 00:47:11;;;;;;;9.40;6.03;;;;;;;12.58;87.76;99365.75;4532446;26;21158;-82
2024/04/13 00:49:14;;;;;;;7.17;5.57;;;;;;;12.54;87.33;99360.78;4540867;26;20664;-81
2024/04/13 00:51:23;;;;;;;6.17;5.30;;;;;;;12.50;87.64;99359.28;4497176;26;20565;-82
2024/04/13 00:53:26;;;;;;;6.60;5.67;;;;;;;12.47;87.81;99360.28;4549977;26;20565;-82
2024/04/13 00:55:32;;;;;;;10.90;5.60;;;;;;;12.48;87.78;99361.13;4502577;26;21016;-82
2024/04/13 00:57:39;;;;;;;7.63;5.50;;;;;;;12.47;87.80;99356.84;4500513;26;21124;-82
2024/04/13 00:59:45;;;;;;;9.20;6.07;;;;;;;12.46;87.86;99357.75;4536216;26;20651;-82
2024/04/13 01:01:48;;;;;;;7.97;5.60;;;;;;;12.46;88.15;99356.00;4541295;26;21142;-82
2024/04/13 01:03:55;;;;;;;6.80;6.10;;;;;;;12.45;88.05;99349.06;4543849;26;20526;-82
2024/04/13 01:05:58;;;;;;;9.40;5.93;;;;;;;12.43;88.20;99350.94;4539878;26;21101;-82
2024/04/13 01:08:04;;;;;;;6.50;5.50;;;;;;;12.42;88.01;99351.03;4525850;26;20564;-82
2024/04/13 01:10:11;;;;;;;7.67;6.17;;;;;;;12.40;88.03;99343.25;4527059;26;21095;-82
2024/04/13 01:12:17;;;;;;;6.63;5.33;;;;;;;12.38;88.37;99345.09;4546754;25;20555;-82
2024/04/13 01:14:22;;;;;;;6.20;5.10;;;;;;;12.35;88.30;99349.66;4533316;26;20619;-82
2024/04/13 01:16:30;;;;;;;8.90;6.10;;;;;;;12.34;88.29;99351.44;4531309;26;20616;-82
2024/04/13 01:18:32;;;;;;;7.43;5.37;;;;;;;12.32;88.26;99349.81;4528394;26;20532;-82
2024/04/13 01:20:36;;;;;;;9.53;5.70;;;;;;;12.29;88.29;99350.00;4528627;26;20578;-82
2024/04/13 01:22:43;;;;;;;7.20;5.53;;;;;;;12.26;88.35;99353.63;4539541;26;20657;-82
2024/04/13 01:24:49;;;;;;;9.10;5.60;;;;;;;12.26;88.31;99358.00;4531646;26;20623;-82
2024/04/13 01:26:55;;;;;;;8.80;5.23;;;;;;;12.25;88.50;99354.56;4534911;26;20576;-82
2024/04/13 01:28:58;;;;;;;6.97;5.70;;;;;;;12.24;88.62;99352.88;4561980;25;20549;-82
2024/04/13 01:31:04;;;;;;;9.60;5.83;;;;;;;12.22;88.95;99360.88;4528814;26;20634;-82
2024/04/13 01:33:09;;;;;;;7.60;5.57;;;;;;;12.21;88.53;99367.03;4556014;26;20581;-82
2024/04/13 01:35:18;;;;;;;7.27;5.63;;;;;;;12.20;88.50;99363.56;4533753;26;20567;-82
2024/04/13 01:37:21;;;;;;;7.87;5.50;;;;;;;12.18;88.46;99365.44;4534237;26;20567;-81
2024/04/13 01:39:27;;;;;;;9.03;6.20;;;;;;;12.15;88.47;99357.75;4527837;26;21149;-82
2024/04/13 01:41:38;;;;;;;8.83;6.30;;;;;;;12.12;88.71;99357.94;4533995;26;20563;-82
2024/04/13 01:43:43;;;;;;;8.10;5.83;;;;;;;12.10;88.73;99367.59;4524806;26;20607;-82
2024/04/13 01:45:46;;;;;;;7.83;6.00;;;;;;;12.07;88.96;99362.56;4498926;26;20581;-82
2024/04/13 01:47:51;;;;;;;9.27;5.60;;;;;;;12.06;88.91;99373.13;4530077;26;21164;-82
2024/04/13 01:49:55;;;;;;;6.70;5.93;;;;;;;12.04;88.80;99367.97;4535035;26;20566;-82
2024/04/13 01:52:00;;;;;;;8.40;5.87;;;;;;;12.03;88.56;99357.59;4507939;26;20563;-82
2024/04/13 01:54:03;;;;;;;6.83;5.50;;;;;;;11.98;89.00;99360.44;4533346;26;20679;-82
2024/04/13 01:56:09;;;;;;;8.20;5.60;;;;;;;11.94;89.18;99358.91;4536017;26;20654;-82
2024/04/13 01:58:14;;;;;;;8.10;5.90;;;;;;;11.94;89.11;99363.31;4538134;26;20550;-82
2024/04/13 02:00:21;;;;;;;7.83;5.40;;;;;;;11.91;89.29;99355.63;4534893;26;20724;-82
2024/04/13 02:02:24;;;;;;;6.60;5.40;;;;;;;11.91;89.43;99360.84;4506090;26;20560;-82
2024/04/13 02:04:30;;;;;;;9.13;5.40;;;;;;;11.89;89.34;99360.94;4540980;26;20555;-82
2024/04/13 02:06:33;;;;;;;8.23;6.00;;;;;;;11.86;89.25;99358.47;4499022;26;20576;-81
2024/04/13 02:08:39;;;;;;;7.27;5.83;;;;;;;11.83;89.25;99363.00;4535010;26;20563;-81
2024/04/13 02:10:42;;;;;;;7.93;6.10;;;;;;;11.80;89.60;99361.44;4532922;26;20636;-81
2024/04/13 02:12:49;;;;;;;8.90;5.40;;;;;;;11.79;89.72;99364.94;4531710;26;20571;-82
2024/04/13 02:14:55;;;;;;;7.03;5.60;;;;;;;11.79;89.90;99371.97;4530831;26;20630;-82
2024/04/13 02:17:00;;;;;;;9.30;5.60;;;;;;;11.78;89.71;99365.03;4535275;26;20574;-82
2024/04/13 02:19:04;;;;;;;6.87;5.20;;;;;;;11.75;90.21;99369.59;4497920;26;20657;-82
2024/04/13 02:21:10;;;;;;;7.80;5.70;;;;;;;11.71;89.29;99368.03;4540737;26;20555;-82
2024/04/13 02:23:14;;;;;;;7.03;5.57;;;;;;;11.68;89.27;99370.81;4491952;26;20808;-82
2024/04/13 02:25:19;;;;;;;6.00;5.10;;;;;;;11.66;89.53;99370.91;4528056;26;20539;-82
2024/04/13 02:27:23;;;;;;;7.53;5.80;;;;;;;11.67;89.58;99369.16;4530132;26;20631;-82
2024/04/13 02:29:29;;;;;;;6.30;5.50;;;;;;;11.68;89.66;99370.81;4534103;26;21295;-82
2024/04/13 02:31:36;;;;;;;6.33;5.30;;;;;;;11.68;89.68;99373.44;4571048;25;21239;-82
2024/04/13 02:33:42;;;;;;;6.97;5.13;;;;;;;11.68;90.18;99376.91;4537817;26;20642;-82
2024/04/13 02:35:47;;;;;;;5.87;5.27;;;;;;;11.68;90.24;99368.22;4529294;26;21601;-82
2024/04/13 02:37:52;;;;;;;7.27;5.37;;;;;;;11.65;90.11;99368.38;4525797;26;20645;-82
2024/04/13 02:39:55;;;;;;;7.13;5.33;;;;;;;11.57;89.92;99365.31;4501636;26;20572;-82
2024/04/13 02:42:01;;;;;;;7.47;6.00;;;;;;;11.55;90.05;99361.94;4534843;26;20634;-82
2024/04/13 02:44:04;;;;;;;7.90;5.93;;;;;;;11.49;89.66;99357.03;4562741;25;20564;-82
2024/04/13 02:46:12;;;;;;;7.70;5.23;;;;;;;11.40;89.34;99355.69;4536751;26;20575;-82
2024/04/13 02:48:19;;;;;;;10.00;7.23;;;;;;;11.32;89.82;99352.66;4534631;26;20552;-82
2024/04/13 02:50:24;;;;;;;8.80;6.40;;;;;;;11.29;90.02;99354.56;4524545;26;20570;-82
2024/04/13 02:52:28;;;;;;;9.50;5.40;;;;;;;11.29;89.68;99357.19;4529914;26;20955;-82
2024/04/13 02:54:34;;;;;;;10.10;5.70;;;;;;;11.31;90.03;99355.34;4555907;26;20586;-82
2024/04/13 02:56:36;;;;;;;5.83;5.13;;;;;;;11.30;90.20;99357.06;4534868;26;20538;-81
2024/04/13 02:58:42;;;;;;;7.50;5.80;;;;;;;11.32;90.09;99359.63;4535765;26;20607;-82
2024/04/13 03:00:51;;;;;;;6.40;5.27;;;;;;;11.33;90.64;99364.75;4533665;26;20900;-81
2024/04/13 03:02:57;;;;;;;6.90;5.57;;;;;;;11.32;90.83;99360.47;4533711;26;20623;-82
2024/04/13 03:05:03;;;;;;;6.40;5.43;;;;;;;11.35;90.82;99365.53;4535281;26;20578;-82
2024/04/13 03:07:08;;;;;;;8.00;5.70;;;;;;;11.35;91.01;99369.91;4500722;26;20618;-82
2024/04/13 03:09:12;;;;;;;7.97;5.60;;;;;;;11.35;90.96;99370.78;4556157;26;21131;-82
2024/04/13 03:11:20;;;;;;;5.80;5.20;;;;;;;11.36;91.00;99363.78;4556761;25;20629;-82
2024/04/13 03:13:24;;;;;;;6.23;5.33;;;;;;;11.35;90.70;99362.06;4533081;26;20595;-82
2024/04/13 03:15:31;;;;;;;6.83;5.90;;;;;;;11.31;90.60;99363.16;4532081;26;21555;-82
2024/04/13 03:17:35;;;;;;;6.47;5.53;;;;;;;11.24;90.60;99368.78;4554867;26;20642;-82
2024/04/13 03:19:41;;;;;;;8.23;5.43;;;;;;;11.23;90.37;99361.84;4531558;26;20579;-82
2024/04/13 03:21:47;;;;;;;6.00;5.37;;;;;;;11.21;90.47;99366.31;4535748;26;20974;-82
2024/04/13 03:23:52;;;;;;;7.67;4.93;;;;;;;11.17;90.29;99359.56;4537556;26;20623;-82
2024/04/13 03:25:55;;;;;;;7.43;5.40;;;;;;;11.15;90.65;99361.41;4529214;26;20571;-82
2024/04/13 03:28:01;;;;;;;7.03;5.87;;;;;;;11.15;90.76;99370.06;4490721;26;20638;-82
2024/04/13 03:30:07;;;;;;;8.43;5.40;;;;;;;11.16;90.74;99365.72;4534583;26;20578;-82
2024/04/13 03:32:10;;;;;;;7.80;5.77;;;;;;;11.16;90.90;99368.34;4534132;26;20756;-82
2024/04/13 03:34:15;;;;;;;8.80;5.00;;;;;;;11.15;90.86;99370.06;4538094;26;20568;-82
2024/04/13 03:36:19;;;;;;;6.60;5.23;;;;;;;11.13;91.15;99364.09;4493382;26;20569;-82
2024/04/13 03:38:27;;;;;;;7.10;5.37;;;;;;;11.12;90.83;99365.00;4503262;26;21508;-82
2024/04/13 03:40:30;;;;;;;8.53;5.30;;;;;;;11.11;90.92;99363.34;4536103;26;20566;-82
2024/04/13 03:42:37;;;;;;;7.93;5.63;;;;;;;11.10;90.90;99368.63;4538673;26;20587;-81
2024/04/13 03:44:40;;;;;;;7.50;6.20;;;;;;;11.08;90.99;99360.88;4526078;26;20574;-82
2024/04/13 03:46:45;;;;;;;6.50;5.10;;;;;;;11.07;91.15;99363.56;4531986;26;20612;-82
2024/04/13 03:48:50;;;;;;;7.70;5.03;;;;;;;11.05;91.27;99366.25;4532949;26;20989;-82
2024/04/13 03:50:56;;;;;;;7.10;5.50;;;;;;;11.04;91.32;99374.16;4538429;26;20682;-82
2024/04/13 03:52:58;;;;;;;6.00;4.97;;;;;;;11.02;91.34;99382.06;4532104;26;21018;-82
2024/04/13 03:55:07;;;;;;;9.27;5.80;;;;;;;10.98;91.23;99370.06;4532753;26;20673;-82
2024/04/13 03:57:11;;;;;;;5.90;4.93;;;;;;;10.96;90.99;99366.72;4535363;26;20523;-82
2024/04/13 03:59:18;;;;;;;9.67;5.90;;;;;;;10.93;90.70;99360.78;4535073;26;21080;-82
2024/04/13 04:01:21;;;;;;;7.07;5.10;;;;;;;10.90;90.80;99364.41;4526255;26;20559;-82
2024/04/13 04:03:27;;;;;;;7.93;4.80;;;;;;;10.84;90.68;99356.88;4536642;26;20568;-82
2024/04/13 04:05:30;;;;;;;8.30;6.00;;;;;;;10.82;90.94;99365.69;4531167;26;20565;-82
2024/04/13 04:07:37;;;;;;;6.80;6.00;;;;;;;10.83;91.43;99363.00;4525970;26;20630;-82
2024/04/13 04:09:40;;;;;;;6.53;5.80;;;;;;;10.83;91.51;99370.00;4533552;26;20572;-82
2024/04/13 04:11:50;;;;;;;8.77;6.33;;;;;;;10.81;91.72;99367.47;4504723;26;20572;-82
2024/04/13 04:13:52;;;;;;;6.77;5.00;;;;;;;10.80;91.41;99368.38;4544242;26;21182;-82
2024/04/13 04:15:59;;;;;;;7.17;5.20;;;;;;;10.79;91.32;99365.00;4534176;26;20559;-82
2024/04/13 04:18:02;;;;;;;6.07;5.03;;;;;;;10.77;91.52;99359.00;4542803;26;20591;-81
2024/04/13 04:20:10;;;;;;;7.13;4.80;;;;;;;10.74;91.16;99357.38;4532577;26;20579;-82
2024/04/13 04:22:13;;;;;;;9.30;5.40;;;;;;;10.70;91.18;99360.22;4537830;26;20645;-82
2024/04/13 04:24:18;;;;;;;7.40;5.00;;;;;;;10.70;91.41;99358.44;4501229;26;20548;-82
2024/04/13 04:26:21;;;;;;;6.50;5.17;;;;;;;10.69;91.34;99353.31;4501374;26;21011;-82
2024/04/13 04:28:29;;;;;;;9.80;6.03;;;;;;;10.72;91.32;99353.16;4540975;26;20661;-82
2024/04/13 04:30:32;;;;;;;6.63;5.00;;;;;;;10.74;91.37;99359.16;4514199;26;20678;-82
2024/04/13 04:32:38;;;;;;;6.13;5.53;;;;;;;10.76;91.62;99354.72;4534918;26;20586;-82
2024/04/13 04:34:41;;;;;;;6.80;5.33;;;;;;;10.74;91.28;99359.16;4531401;26;20649;-81
2024/04/13 04:36:47;;;;;;;7.97;5.40;;;;;;;10.73;91.28;99362.69;4533842;26;20578;-82
2024/04/13 04:38:50;;;;;;;5.60;5.00;;;;;;;10.69;90.95;99366.34;4529496;26;20673;-82
2024/04/13 04:40:57;;;;;;;7.07;5.40;;;;;;;10.68;91.15;99367.28;4562251;25;21137;-82
2024/04/13 04:43:03;;;;;;;7.37;6.07;;;;;;;10.66;91.30;99362.16;4533479;26;21146;-82
2024/04/13 04:45:12;;;;;;;10.80;5.33;;;;;;;10.64;90.77;99369.19;4531150;26;20633;-82
2024/04/13 04:47:15;;;;;;;6.20;5.60;;;;;;;10.62;90.70;99365.81;4505282;26;20713;-82
2024/04/13 04:49:22;;;;;;;7.43;5.93;;;;;;;10.61;90.26;99363.28;4536773;26;20990;-81
2024/04/13 04:51:25;;;;;;;6.77;5.70;;;;;;;10.55;90.92;99353.97;4526622;26;21199;-82
2024/04/13 04:53:30;;;;;;;8.47;6.13;;;;;;;10.60;91.01;99361.56;4504174;26;20695;-82
2024/04/13 04:55:34;;;;;;;10.17;6.07;;;;;;;10.58;91.53;99364.25;4535644;26;20561;-82
2024/04/13 04:57:41;;;;;;;6.93;6.00;;;;;;;10.62;91.52;99367.59;4532336;26;20558;-82
2024/04/13 04:59:44;;;;;;;6.63;6.00;;;;;;;10.64;92.02;99373.56;4525830;26;20676;-82
2024/04/13 05:01:53;;;;;;;10.30;5.97;;;;;;;10.67;91.58;99363.81;4530213;26;20547;-81
2024/04/13 05:03:58;;;;;;;6.03;5.43;;;;;;;10.68;92.11;99369.91;4506727;26;20973;-82
2024/04/13 05:06:05;;;;;;;7.33;5.70;;;;;;;10.63;92.57;99374.47;4537938;26;20677;-82
2024/04/13 05:08:08;;;;;;;6.37;5.77;;;;;;;10.65;92.77;99380.47;4539025;26;21178;-82
2024/04/13 05:10:14;;;;;;;9.40;5.80;;;;;;;10.69;92.96;99376.78;4501596;26;20653;-82
2024/04/13 05:12:18;;;;;;;6.67;5.43;;;;;;;10.72;92.70;99376.63;4530129;26;20700;-81
2024/04/13 05:14:23;;;;;;;8.33;5.50;;;;;;;10.72;92.76;99385.34;4503615;26;20529;-81
2024/04/13 05:16:27;;;;;;;5.40;4.90;;;;;;;10.75;92.60;99386.94;4535495;26;20619;-82
2024/04/13 05:18:35;;;;;;;6.17;5.57;;;;;;;10.79;92.63;99386.72;4516493;26;20568;-82
2024/04/13 05:20:38;;;;;;;6.63;5.70;;;;;;;10.83;92.64;99386.47;4511038;26;20637;-82
2024/04/13 05:22:46;;;;;;;8.37;5.87;;;;;;;10.82;92.90;99390.03;4529614;26;20632;-81
2024/04/13 05:24:49;;;;;;;6.43;5.10;;;;;;;10.76;91.92;99386.84;4525135;26;20550;-82
2024/04/13 05:26:55;;;;;;;6.37;5.10;;;;;;;10.73;91.68;99386.16;4534194;26;20973;-82
2024/04/13 05:28:59;;;;;;;9.33;5.40;;;;;;;10.74;91.85;99390.47;4533341;26;20973;-82
2024/04/13 05:31:09;;;;;;;7.10;5.37;;;;;;;10.76;92.50;99394.69;4540701;26;20551;-82
2024/04/13 05:33:13;;;;;;;7.53;5.73;;;;;;;10.79;92.13;99393.69;4527621;26;20595;-82
2024/04/13 05:35:21;;;;;;;6.47;5.27;;;;;;;10.83;92.51;99385.66;4535104;26;20684;-82
2024/04/13 05:37:24;;;;;;;11.30;5.73;;;;;;;10.83;92.64;99386.47;4532945;26;20562;-83
2024/04/13 05:39:32;;;;;;;7.37;5.70;;;;;;;10.85;92.28;99392.50;4556117;26;20613;-82
2024/04/13 05:41:35;;;;;;;7.03;5.77;;;;;;;10.90;92.22;99398.31;4502694;26;20561;-82
2024/04/13 05:43:42;;;;;;;7.23;5.33;;;;;;;11.07;92.71;99406.16;4534263;26;20562;-82
2024/04/13 05:45:45;;;;;;;7.10;5.50;;;;;;;11.36;93.00;99405.56;4531665;26;20649;-82
2024/04/13 05:47:52;;;;;;;6.20;5.40;;;;;;;11.65;92.36;99416.28;4507484;26;20571;-83
2024/04/13 05:49:55;;;;;;;8.30;5.60;;;;;;;11.89;90.78;99415.84;4529919;26;20580;-82
2024/04/13 05:52:03;;;;;;;8.13;5.70;;;;;;;12.12;90.08;99418.06;4537938;26;20567;-82
2024/04/13 05:54:06;;;;;;;8.37;5.70;;;;;;;12.35;89.34;99417.69;4527572;26;20716;-82
2024/04/13 05:56:13;;;;;;;6.97;5.40;;;;;;;12.60;87.95;99424.13;4533658;26;20568;-82
2024/04/13 05:58:16;;;;;;;8.97;5.90;;;;;;;12.89;86.95;99418.13;4527993;26;20641;-82
2024/04/13 06:00:22;;;;;;;7.83;6.07;;;;;;;13.13;85.44;99414.13;4532134;26;20559;-82
2024/04/13 06:02:26;;;;;;;6.50;5.60;;;;;;;13.37;84.68;99418.78;4530288;26;20580;-82
2024/04/13 06:04:32;;;;;;;8.63;6.30;;;;;;;13.54;83.75;99419.47;4541529;26;20566;-82
2024/04/13 06:06:34;;;;;;;6.73;5.83;;;;;;;13.70;83.98;99420.25;4537437;26;20575;-82
2024/04/13 06:08:43;;;;;;;8.37;6.10;;;;;;;13.88;82.90;99420.00;4533641;26;20574;-82
2024/04/13 06:10:46;;;;;;;9.93;5.30;;;;;;;14.08;82.40;99421.44;4526268;26;20568;-82
2024/04/13 06:12:51;;;;;;;6.90;5.67;;;;;;;14.22;81.20;99420.50;4526178;26;22139;-82
2024/04/13 06:14:55;;;;;;;9.90;6.17;;;;;;;14.36;81.04;99430.16;4524469;26;20652;-82
2024/04/13 06:17:01;;;;;;;7.80;6.30;;;;;;;14.48;81.30;99429.38;4534584;26;20576;-82
2024/04/13 06:19:06;;;;;;;7.97;6.03;;;;;;;14.68;81.68;99441.16;4533800;26;20677;-82
2024/04/13 06:21:12;;;;;;;8.70;5.43;;;;;;;14.91;80.75;99439.69;4527296;26;20663;-83
2024/04/13 06:23:17;;;;;;;6.70;5.47;;;;;;;15.08;79.85;99435.06;4533501;26;21088;-83
2024/04/13 06:25:26;;;;;;;9.00;5.33;;;;;;;15.26;79.81;99442.63;4521223;26;20672;-82
2024/04/13 06:27:30;;;;;;;7.90;5.90;;;;;;;15.47;80.87;99438.56;4494332;26;20566;-82
2024/04/13 06:29:36;;;;;;;9.23;6.80;;;;;;;15.62;81.02;99441.03;4506280;26;20617;-82
2024/04/13 06:31:39;;;;;;;11.07;6.10;;;;;;;15.69;78.74;99438.81;4539399;26;20551;-82
2024/04/13 06:33:43;;;;;;;10.60;5.80;;;;;;;15.82;80.70;99440.50;4543553;26;20578;-82
2024/04/13 06:35:55;;;;;;;10.00;7.00;;;;;;;15.99;80.18;99453.34;4523420;26;21140;-82
2024/04/13 06:37:58;;;;;;;9.83;5.80;;;;;;;16.14;78.82;99441.78;4538279;26;20556;-82
2024/04/13 06:40:03;;;;;;;6.80;5.67;;;;;;;16.27;78.06;99448.75;4542662;26;20665;-82
2024/04/13 06:42:09;;;;;;;7.80;6.10;;;;;;;16.40;77.07;99448.75;4544379;26;20610;-82
2024/04/13 06:44:14;;;;;;;13.00;7.13;;;;;;;16.56;76.05;99456.28;4530813;26;20644;-82
2024/04/13 06:46:18;;;;;;;8.23;5.93;;;;;;;16.75;75.27;99450.59;4536778;26;20651;-82
2024/04/13 06:48:23;;;;;;;10.50;6.87;;;;;;;16.95;76.07;99442.09;4511583;26;20570;-82
2024/04/13 06:50:26;;;;;;;10.63;6.77;;;;;;;17.12;75.81;99446.03;4538179;26;20595;-82
2024/04/13 06:52:33;;;;;;;10.30;6.00;;;;;;;17.35;75.59;99441.72;4556380;26;20657;-82
2024/04/13 06:54:39;;;;;;;8.10;6.20;;;;;;;17.60;77.77;99451.16;4556628;26;20553;-82
2024/04/13 06:56:48;;;;;;;9.90;6.17;;;;;;;17.81;75.61;99456.66;4537401;26;20565;-82
2024/04/13 06:58:53;;;;;;;10.53;6.77;;;;;;;17.99;76.36;99461.38;4538594;26;20602;-82
2024/04/13 07:00:59;;;;;;;10.10;6.03;;;;;;;18.18;75.18;99461.69;4515061;26;20723;-82
2024/04/13 07:03:02;;;;;;;6.67;5.97;;;;;;;18.44;76.55;99461.34;4531519;26;20591;-82
2024/04/13 07:05:09;;;;;;;8.57;7.10;;;;;;;18.60;73.77;99459.19;4539015;26;21011;-82
2024/04/13 07:07:13;;;;;;;9.60;8.37;;;;;;;18.74;72.72;99459.75;4546558;26;21216;-82
2024/04/13 07:09:20;;;;;;;10.67;8.30;;;;;;;18.90;72.70;99463.72;4530335;25;20682;-82
2024/04/13 07:11:23;;;;;;;9.37;6.60;;;;;;;19.09;73.21;99465.75;4566872;25;20561;-82
2024/04/13 07:13:30;;;;;;;8.30;6.27;;;;;;;19.28;75.71;99471.25;4533963;26;20607;-82
2024/04/13 07:15:35;;;;;;;9.30;6.87;;;;;;;19.41;71.44;99457.72;4544606;26;20603;-83
2024/04/13 07:17:41;;;;;;;13.03;7.70;;;;;;;19.57;72.73;99462.59;4535257;26;20962;-82
2024/04/13 07:19:46;;;;;;;11.23;7.73;;;;;;;19.81;73.29;99460.56;4528087;26;21121;-82
2024/04/13 07:21:52;;;;;;;9.67;6.20;;;;;;;20.09;72.48;99464.28;4533411;26;20682;-82
2024/04/13 07:23:58;;;;;;;10.90;6.37;;;;;;;20.25;71.05;99461.16;4506150;26;20569;-82
2024/04/13 07:26:04;;;;;;;9.10;6.83;;;;;;;20.41;69.77;99465.00;4537004;26;20619;-83
2024/04/13 07:28:06;;;;;;;8.63;6.20;;;;;;;20.60;69.73;99462.47;4532294;26;20557;-81
2024/04/13 07:30:12;;;;;;;8.07;6.03;;;;;;;20.75;70.36;99469.09;4529445;26;21116;-82
2024/04/13 07:32:18;;;;;;;7.47;6.03;;;;;;;20.89;69.40;99456.31;4539653;26;20578;-82
2024/04/13 07:34:23;;;;;;;7.40;6.13;;;;;;;21.06;67.95;99453.81;4548426;26;20562;-82
2024/04/13 07:36:28;;;;;;;7.37;6.03;;;;;;;21.16;67.64;99457.34;4523351;26;20556;-82
2024/04/13 07:38:33;;;;;;;8.10;6.57;;;;;;;21.37;67.48;99458.91;4507663;26;21210;-82
2024/04/13 07:40:36;;;;;;;12.40;6.97;;;;;;;21.48;69.40;99452.66;4539156;26;21028;-82
2024/04/13 07:42:42;;;;;;;8.50;6.13;;;;;;;21.59;67.40;99455.19;4532177;26;20561;-82
2024/04/13 07:44:45;;;;;;;9.13;6.57;;;;;;;21.65;69.54;99451.97;4537597;26;20623;-82
2024/04/13 07:46:55;;;;;;;8.27;6.47;;;;;;;21.81;67.08;99453.94;4538882;26;20673;-82
2024/04/13 07:49:01;;;;;;;8.70;7.13;;;;;;;21.95;66.13;99448.19;4531952;26;20576;-82
2024/04/13 07:51:07;;;;;;;10.90;6.57;;;;;;;22.04;66.43;99454.44;4536157;26;20562;-82
2024/04/13 07:53:10;;;;;;;7.57;6.60;;;;;;;22.15;64.61;99456.97;4501533;26;20572;-83
2024/04/13 07:55:16;;;;;;;7.90;6.60;;;;;;;22.21;67.47;99451.94;4542384;26;20556;-82
2024/04/13 07:57:21;;;;;;;8.67;6.57;;;;;;;22.36;64.26;99454.00;4541192;26;20562;-82
2024/04/13 07:59:27;;;;;;;7.30;6.60;;;;;;;22.37;64.18;99445.03;4546090;25;20565;-82
2024/04/13 08:01:30;;;;;;;11.93;6.80;;;;;;;22.54;64.60;99446.09;4530262;26;20556;-84
2024/04/13 08:03:36;;;;;;;7.30;6.50;;;;;;;22.63;63.57;99437.22;4535911;26;20615;-83
2024/04/13 08:05:41;;;;;;;7.60;6.73;;;;;;;22.65;65.01;99436.09;4536886;26;20571;-84
2024/04/13 08:07:48;;;;;;;8.73;6.60;;;;;;;22.71;65.33;99424.03;4529557;26;21157;-87
2024/04/13 08:09:51;;;;;;;10.53;6.03;;;;;;;22.83;64.85;99423.69;4530570;26;20701;-85
2024/04/13 08:11:58;;;;;;;7.67;6.50;;;;;;;22.93;65.64;99419.16;4532945;26;20591;-84
2024/04/13 08:14:02;;;;;;;9.77;6.53;;;;;;;22.99;62.68;99419.44;4539296;26;20643;-85
2024/04/13 08:16:09;;;;;;;9.27;6.70;;;;;;;22.95;64.63;99418.03;4565799;26;20567;-85
2024/04/13 08:18:12;;;;;;;8.67;6.80;;;;;;;22.98;65.11;99416.91;4562797;26;20554;-85
2024/04/13 08:20:19;;;;;;;8.23;6.17;;;;;;;23.07;65.50;99411.53;4516007;26;20993;-85
2024/04/13 08:22:24;;;;;;;7.67;6.60;;;;;;;23.17;65.32;99411.44;4520257;26;21025;-86
2024/04/13 08:24:30;;;;;;;8.23;6.23;;;;;;;23.28;65.63;99410.25;4536277;26;20559;-84
2024/04/13 08:26:33;;;;;;;8.67;6.20;;;;;;;23.33;63.01;99402.66;4534252;26;20646;-83
2024/04/13 08:28:39;;;;;;;9.17;6.70;;;;;;;23.37;63.91;99406.69;4526141;26;20647;-83
2024/04/13 08:30:43;;;;;;;8.53;6.33;;;;;;;23.40;63.25;99403.72;4524214;26;20550;-84
2024/04/13 08:32:49;;;;;;;8.30;6.43;;;;;;;23.52;64.74;99405.16;4525998;26;20683;-84
2024/04/13 08:34:52;;;;;;;7.10;5.57;;;;;;;23.61;64.06;99396.25;4535628;26;21163;-85
2024/04/13 08:36:58;;;;;;;10.20;6.80;;;;;;;23.73;61.89;99403.88;4535345;26;20944;-84
2024/04/13 08:39:10;;;;;;;11.20;5.90;;;;;;;23.70;63.38;99401.50;4537019;26;20553;-83
2024/04/13 08:41:17;;;;;;;8.10;6.00;;;;;;;23.81;62.98;99397.75;4539208;26;20996;-84
2024/04/13 08:43:23;;;;;;;8.50;5.60;;;;;;;23.94;62.00;99393.69;4545582;26;20638;-83
2024/04/13 08:45:28;;;;;;;7.70;5.37;;;;;;;24.03;60.99;99397.28;4568085;25;20621;-83
2024/04/13 08:47:32;;;;;;;8.67;5.80;;;;;;;24.05;62.19;99395.28;4510355;26;20557;-83
2024/04/13 08:49:39;;;;;;;8.40;5.43;;;;;;;24.13;63.99;99392.66;4548692;26;20938;-83
2024/04/13 08:51:47;;;;;;;7.00;5.63;;;;;;;24.25;65.99;99397.56;4509820;26;20639;-83
2024/04/13 08:53:54;;;;;;;8.67;5.00;;;;;;;24.35;63.14;99393.00;4546888;26;20638;-83
2024/04/13 08:56:01;;;;;;;5.67;4.53;;;;;;;24.35;63.51;99391.16;4530421;26;20688;-83
2024/04/13 08:58:08;;;;;;;5.97;5.37;;;;;;;24.39;62.89;99381.84;4533202;26;20620;-83
2024/04/13 09:00:15;;;;;;;9.87;7.43;;;;;;;24.49;64.06;99374.56;4534020;26;20583;-83
2024/04/13 09:02:25;;;;;;;7.43;5.47;;;;;;;24.52;63.52;99373.41;4516692;26;20557;-83
2024/04/13 09:04:28;;;;;;;8.17;6.10;;;;;;;24.59;63.02;99371.78;4540989;26;20557;-83
2024/04/13 09:06:32;;;;;;;7.37;5.80;;;;;;;24.46;63.22;99366.03;4566699;25;20996;-83
2024/04/13 09:08:37;;;;;;;17.40;6.20;;;;;;;24.51;64.58;99366.41;4538155;26;20561;-83
2024/04/13 09:10:42;;;;;;;6.17;5.53;;;;;;;24.51;63.78;99364.56;4544590;26;20584;-83
2024/04/13 09:12:51;;;;;;;7.93;5.60;;;;;;;24.50;62.86;99364.72;4505838;26;20610;-83
2024/04/13 09:14:54;;;;;;;8.77;5.77;;;;;;;24.53;62.27;99364.41;4539300;26;20613;-84
2024/04/13 09:17:00;;;;;;;7.43;5.70;;;;;;;24.55;62.38;99357.91;4534155;26;20557;-84
2024/04/13 09:19:03;;;;;;;6.90;5.10;;;;;;;24.66;62.47;99354.94;4506532;26;20578;-82
2024/04/13 09:21:13;;;;;;;5.73;5.00;;;;;;;24.74;63.72;99358.47;4535170;26;20673;-83
2024/04/13 09:23:16;;;;;;;5.80;5.07;;;;;;;24.80;63.04;99347.13;4509453;26;20651;-83
2024/04/13 09:25:23;;;;;;;5.83;4.30;;;;;;;24.85;61.91;99354.66;4532050;26;20610;-83
2024/04/13 09:27:28;;;;;;;6.27;5.10;;;;;;;24.80;62.94;99340.97;4533455;26;20573;-83
2024/04/13 09:29:36;;;;;;;5.70;4.97;;;;;;;24.90;61.75;99331.00;4487407;26;20567;-83
2024/04/13 09:31:40;;;;;;;7.07;4.50;;;;;;;25.02;62.34;99338.56;4551765;26;20673;-82
2024/04/13 09:33:50;;;;;;;5.37;4.13;;;;;;;25.04;61.57;99341.06;4533724;26;20582;-83
2024/04/13 09:35:57;;;;;;;7.80;4.50;;;;;;;25.16;63.67;99344.06;4537034;26;20569;-83
2024/04/13 09:38:03;;;;;;;5.93;4.17;;;;;;;25.17;60.91;99339.59;4506187;26;20623;-83
2024/04/13 09:40:07;;;;;;;6.10;4.53;;;;;;;25.19;60.60;99337.56;4536944;26;20552;-84
2024/04/13 09:42:14;;;;;;;4.80;3.80;;;;;;;25.21;61.68;99336.44;4500568;26;20606;-83
2024/04/13 09:44:27;;;;;;;6.53;4.90;;;;;;;25.23;62.46;99329.06;4553361;25;20963;-84
2024/04/13 09:46:35;;;;;;;7.23;5.30;;;;;;;25.31;62.04;99323.72;4547944;26;20664;-83
2024/04/13 09:48:39;;;;;;;8.77;5.00;;;;;;;25.36;61.17;99320.53;4532844;26;21041;-82